createdAt,value
2022-10-03T00:01:37.502Z,97880.63
2022-10-03T00:04:07.972Z,97865.13
2022-10-03T00:06:57.968Z,97851.34
2022-10-03T00:09:26.678Z,97857.34
2022-10-03T00:11:59.762Z,97863.31
2022-10-03T00:15:01.051Z,97838.25
2022-10-03T00:17:45.549Z,97827.13
2022-10-03T00:20:15.808Z,97827.94
2022-10-03T00:23:04.571Z,97823.56
2022-10-03T00:25:35.331Z,97817.56
2022-10-03T00:28:44.547Z,97823.50
2022-10-03T00:31:18.794Z,97818.38
2022-10-03T00:34:21.609Z,97813.91
2022-10-03T00:37:12.256Z,97802.78
2022-10-03T00:40:16.467Z,97800.19
2022-10-03T00:43:01.392Z,97795.81
2022-10-03T00:45:58.865Z,97792.31
2022-10-03T00:48:29.087Z,97799.16
2022-10-03T00:51:03.147Z,97794.81
2022-10-03T00:53:56.141Z,97791.28
2022-10-03T00:56:32.479Z,97790.38
2022-10-03T00:59:38.348Z,97788.63
2022-10-03T01:02:30.325Z,97780.72
2022-10-03T01:05:33.779Z,97767.84
2022-10-03T01:08:04.033Z,97779.84
2022-10-03T01:10:37.416Z,97768.63
2022-10-03T01:13:26.673Z,97757.34
2022-10-03T01:16:18.512Z,97753.88
2022-10-03T01:18:57.829Z,97756.47
2022-10-03T01:21:46.239Z,97756.44
2022-10-03T01:24:45.845Z,97742.63
2022-10-03T01:27:56.853Z,97726.94
2022-10-03T01:30:24.454Z,97722.66
2022-10-03T01:33:00.810Z,97721.00
2022-10-03T01:36:03.259Z,97716.56
2022-10-03T01:38:53.832Z,97707.09
2022-10-03T01:41:27.139Z,97711.44
2022-10-03T01:44:11.683Z,97707.97
2022-10-03T01:46:46.643Z,97686.56
2022-10-03T01:49:43.149Z,97714.03
2022-10-03T01:52:35.180Z,97710.38
2022-10-03T01:55:25.583Z,97707.75
2022-10-03T01:58:13.264Z,97697.44
2022-10-03T02:00:46.134Z,97684.38
2022-10-03T02:03:36.328Z,97688.81
2022-10-03T02:06:21.511Z,97672.50
2022-10-03T02:08:54.861Z,97680.06
2022-10-03T02:11:30.235Z,97679.31
2022-10-03T02:14:20.327Z,97679.19
2022-10-03T02:17:05.148Z,97691.19
2022-10-03T02:19:48.999Z,97678.22
2022-10-03T02:22:35.054Z,97677.28
2022-10-03T02:25:35.558Z,97672.91
2022-10-03T02:28:36.793Z,97666.00
2022-10-03T02:31:32.410Z,97665.03
2022-10-03T02:34:29.962Z,97665.00
2022-10-03T02:37:18.724Z,97658.97
2022-10-03T02:40:05.048Z,97660.53
2022-10-03T02:42:59.963Z,97661.38
2022-10-03T02:45:58.232Z,97644.91
2022-10-03T02:48:44.270Z,97656.06
2022-10-03T02:51:36.360Z,97657.81
2022-10-03T02:54:31.706Z,97656.00
2022-10-03T02:57:20.864Z,97640.53
2022-10-03T03:00:14.702Z,97631.03
2022-10-03T03:03:01.463Z,97630.03
2022-10-03T03:06:05.560Z,97649.88
2022-10-03T03:08:54.767Z,97636.16
2022-10-03T03:11:50.839Z,97637.69
2022-10-03T03:14:52.399Z,97644.53
2022-10-03T03:17:34.083Z,97624.78
2022-10-03T03:20:29.359Z,97617.81
2022-10-03T03:23:09.424Z,97633.41
2022-10-03T03:25:55.446Z,97629.88
2022-10-03T03:28:47.126Z,97622.06
2022-10-03T03:31:19.026Z,97622.22
2022-10-03T03:34:02.324Z,97620.38
2022-10-03T03:36:38.759Z,97630.72
2022-10-03T03:39:27.702Z,97620.28
2022-10-03T03:42:40.347Z,97612.44
2022-10-03T03:45:41.800Z,97603.09
2022-10-03T03:48:31.140Z,97614.22
2022-10-03T03:51:19.607Z,97629.66
2022-10-03T03:54:03.671Z,97597.75
2022-10-03T03:56:39.922Z,97603.06
2022-10-03T03:59:22.386Z,97610.81
2022-10-03T04:02:05.406Z,97597.06
2022-10-03T04:04:55.866Z,97595.16
2022-10-03T04:07:44.766Z,97581.38
2022-10-03T04:10:31.984Z,97582.97
2022-10-03T04:13:23.857Z,97572.56
2022-10-03T04:15:59.808Z,97556.13
2022-10-03T04:18:59.826Z,97555.16
2022-10-03T04:21:39.941Z,97544.84
2022-10-03T04:24:32.226Z,97549.94
2022-10-03T04:27:31.383Z,97542.94
2022-10-03T04:30:18.875Z,97542.94
2022-10-03T04:32:52.508Z,97546.41
2022-10-03T04:35:52.409Z,97541.31
2022-10-03T04:39:16.658Z,97533.44
2022-10-03T04:41:53.172Z,97537.69
2022-10-03T04:44:33.156Z,97547.16
2022-10-03T04:47:16.866Z,97524.75
2022-10-03T04:49:53.138Z,97517.81
2022-10-03T04:52:39.540Z,97518.34
2022-10-03T04:55:30.172Z,97533.81
2022-10-03T04:58:20.422Z,97517.44
2022-10-03T05:01:15.416Z,97516.56
2022-10-03T05:03:53.335Z,97505.34
2022-10-03T05:06:42.036Z,97511.16
2022-10-03T05:09:40.091Z,97494.78
2022-10-03T05:12:13.010Z,97493.09
2022-10-03T05:15:12.673Z,97491.31
2022-10-03T05:18:11.463Z,97491.19
2022-10-03T05:20:51.948Z,97501.56
2022-10-03T05:24:03.040Z,97492.09
2022-10-03T05:26:44.590Z,97478.22
2022-10-03T05:29:37.491Z,97477.34
2022-10-03T05:32:27.057Z,97467.13
2022-10-03T05:35:12.422Z,97454.97
2022-10-03T05:37:52.412Z,97458.50
2022-10-03T05:40:28.780Z,97456.66
2022-10-03T05:43:23.847Z,97451.34
2022-10-03T05:46:12.354Z,97434.22
2022-10-03T05:48:48.124Z,97441.03
2022-10-03T05:51:18.357Z,97428.91
2022-10-03T05:54:00.617Z,97439.25
2022-10-03T05:56:38.951Z,97437.59
2022-10-03T05:59:20.312Z,97415.94
2022-10-03T06:01:50.565Z,97422.91
2022-10-03T06:04:39.263Z,97434.00
2022-10-03T06:07:39.057Z,97409.91
2022-10-03T06:10:29.396Z,97406.28
2022-10-03T06:13:15.472Z,97422.91
2022-10-03T06:15:42.928Z,97406.47
2022-10-03T06:18:32.375Z,97405.50
2022-10-03T06:21:08.608Z,97411.53
2022-10-03T06:24:14.345Z,97407.94
2022-10-03T06:27:19.031Z,97409.63
2022-10-03T06:30:26.070Z,97406.13
2022-10-03T06:33:24.484Z,97398.50
2022-10-03T06:35:54.646Z,97425.50
2022-10-03T06:38:36.490Z,97398.81
2022-10-03T06:41:39.249Z,97397.97
2022-10-03T06:44:12.678Z,97400.56
2022-10-03T06:46:45.700Z,97383.38
2022-10-03T06:49:34.112Z,97380.78
2022-10-03T06:52:15.323Z,97386.94
2022-10-03T06:54:48.834Z,97384.34
2022-10-03T06:57:40.808Z,97397.41
2022-10-03T07:00:11.879Z,97395.75
2022-10-03T07:03:21.697Z,97401.81
2022-10-03T07:06:11.913Z,97417.50
2022-10-03T07:08:45.424Z,97444.50
2022-10-03T07:11:31.473Z,97411.88
2022-10-03T07:14:18.761Z,97413.63
2022-10-03T07:17:15.793Z,97422.31
2022-10-03T07:19:55.043Z,97414.66
2022-10-03T07:23:15.959Z,97420.66
2022-10-03T07:25:55.706Z,97408.63
2022-10-03T07:28:48.617Z,97431.84
2022-10-03T07:31:37.913Z,97410.38
2022-10-03T07:34:20.446Z,97418.09
2022-10-03T07:37:32.695Z,97400.84
2022-10-03T07:40:20.350Z,97409.56
2022-10-03T07:42:53.901Z,97425.88
2022-10-03T07:45:37.581Z,97434.72
2022-10-03T07:48:42.453Z,97432.22
2022-10-03T07:51:15.074Z,97432.56
2022-10-03T07:54:05.663Z,97408.53
2022-10-03T07:56:35.914Z,97426.78
2022-10-03T07:59:41.180Z,97432.94
2022-10-03T08:02:39.301Z,97420.19
2022-10-03T08:05:39.738Z,97422.84
2022-10-03T08:08:25.198Z,97412.34
2022-10-03T08:11:14.196Z,97423.72
2022-10-03T08:13:44.497Z,97436.69
2022-10-03T08:16:40.093Z,97415.91
2022-10-03T08:19:35.169Z,97427.88
2022-10-03T08:22:25.634Z,97429.63
2022-10-03T08:25:30.203Z,97425.41
2022-10-03T08:27:58.802Z,97428.19
2022-10-03T08:30:48.252Z,97423.91
2022-10-03T08:33:25.105Z,97438.66
2022-10-03T08:36:14.480Z,97437.00
2022-10-03T08:38:59.752Z,97464.66
2022-10-03T08:41:58.043Z,97459.53
2022-10-03T08:44:30.470Z,97459.66
2022-10-03T08:47:25.344Z,97465.72
2022-10-03T08:50:05.826Z,97456.34
2022-10-03T08:52:51.857Z,97474.34
2022-10-03T08:55:32.490Z,97464.03
2022-10-03T08:58:26.902Z,97476.03
2022-10-03T09:01:28.108Z,97474.44
2022-10-03T09:04:51.499Z,97472.63
2022-10-03T09:07:22.258Z,97489.97
2022-10-03T09:10:19.417Z,97489.81
2022-10-03T09:13:14.479Z,97480.34
2022-10-03T09:15:41.947Z,97480.34
2022-10-03T09:18:46.784Z,97473.34
2022-10-03T09:21:37.407Z,97481.34
2022-10-03T09:24:53.155Z,97490.66
2022-10-03T09:27:43.375Z,97493.41
2022-10-03T09:30:16.768Z,97494.34
2022-10-03T09:32:47.280Z,97499.56
2022-10-03T09:35:39.274Z,97493.31
2022-10-03T09:38:31.342Z,97506.09
2022-10-03T09:41:46.329Z,97497.97
2022-10-03T09:44:25.398Z,97510.75
2022-10-03T09:47:28.414Z,97507.16
2022-10-03T09:50:21.225Z,97501.13
2022-10-03T09:53:16.315Z,97508.81
2022-10-03T09:56:02.683Z,97528.81
2022-10-03T09:58:56.095Z,97519.19
2022-10-03T10:01:32.890Z,97502.72
2022-10-03T10:04:37.811Z,97496.66
2022-10-03T10:07:35.730Z,97516.28
2022-10-03T10:10:36.965Z,97519.75
2022-10-03T10:13:13.206Z,97525.06
2022-10-03T10:16:19.132Z,97530.19
2022-10-03T10:19:11.640Z,97544.03
2022-10-03T10:21:51.255Z,97546.19
2022-10-03T10:24:30.579Z,97565.38
2022-10-03T10:27:28.529Z,97564.72
2022-10-03T10:30:01.807Z,97561.53
2022-10-03T10:33:02.920Z,97560.03
2022-10-03T10:35:51.940Z,97559.59
2022-10-03T10:38:25.321Z,97561.44
2022-10-03T10:41:25.175Z,97560.47
2022-10-03T10:44:07.974Z,97569.50
2022-10-03T10:47:13.923Z,97554.91
2022-10-03T10:50:08.584Z,97570.50
2022-10-03T10:53:09.770Z,97559.91
2022-10-03T10:56:00.253Z,97572.88
2022-10-03T10:58:46.685Z,97574.75
2022-10-03T11:01:56.888Z,97592.41
2022-10-03T11:04:49.225Z,97605.97
2022-10-03T11:07:31.315Z,97606.59
2022-10-03T11:10:10.823Z,97620.31
2022-10-03T11:13:00.945Z,97629.78
2022-10-03T11:15:47.732Z,97641.91
2022-10-03T11:18:50.302Z,97651.13
2022-10-03T11:21:45.766Z,97659.34
2022-10-03T11:24:37.709Z,97666.63
2022-10-03T11:27:35.650Z,97689.28
2022-10-03T11:30:21.211Z,97682.50
2022-10-03T11:32:57.657Z,97690.09
2022-10-03T11:35:31.193Z,97683.41
2022-10-03T11:38:26.263Z,97675.00
2022-10-03T11:41:08.752Z,97678.59
2022-10-03T11:43:45.268Z,97704.47
2022-10-03T11:46:54.426Z,97688.66
2022-10-03T11:49:40.435Z,97696.34
2022-10-03T11:52:39.130Z,97688.34
2022-10-03T11:55:30.494Z,97705.34
2022-10-03T11:58:24.023Z,97725.13
2022-10-03T12:01:11.303Z,97705.44
2022-10-03T12:04:05.320Z,97725.41
2022-10-03T12:07:14.999Z,97735.56
2022-10-03T12:10:09.818Z,97737.66
2022-10-03T12:12:52.272Z,97743.41
2022-10-03T12:15:28.494Z,97773.13
2022-10-03T12:18:09.692Z,97768.38
2022-10-03T12:21:05.419Z,97773.84
2022-10-03T12:23:33.046Z,97780.38
2022-10-03T12:26:03.162Z,97784.16
2022-10-03T12:28:42.945Z,97801.88
2022-10-03T12:31:30.086Z,97788.44
2022-10-03T12:34:20.198Z,97800.69
2022-10-03T12:37:09.010Z,97830.22
2022-10-03T12:40:00.951Z,97841.66
2022-10-03T12:43:05.441Z,97865.09
2022-10-03T12:45:50.944Z,97857.47
2022-10-03T12:48:30.046Z,97875.63
2022-10-03T12:51:06.771Z,97884.28
2022-10-03T12:54:12.581Z,97879.13
2022-10-03T12:56:50.313Z,97896.28
2022-10-03T12:59:42.025Z,97908.28
2022-10-03T13:02:18.515Z,97914.28
2022-10-03T13:05:10.377Z,97922.84
2022-10-03T13:08:03.934Z,97914.28
2022-10-03T13:10:47.874Z,97938.31
2022-10-03T13:13:42.914Z,97944.31
2022-10-03T13:16:16.559Z,97936.53
2022-10-03T13:18:51.841Z,97948.50
2022-10-03T13:21:44.534Z,97957.09
2022-10-03T13:24:47.095Z,97978.50
2022-10-03T13:27:40.447Z,97967.28
2022-10-03T13:30:22.882Z,97979.25
2022-10-03T13:32:56.190Z,97980.16
2022-10-03T13:35:48.904Z,97969.00
2022-10-03T13:38:37.175Z,97975.03
2022-10-03T13:41:50.202Z,97978.47
2022-10-03T13:44:23.824Z,97992.13
2022-10-03T13:46:58.209Z,97981.81
2022-10-03T13:49:36.007Z,97993.81
2022-10-03T13:52:34.086Z,97986.13
2022-10-03T13:55:28.712Z,98056.34
2022-10-03T13:58:11.676Z,98013.44
2022-10-03T14:01:13.706Z,98021.16
2022-10-03T14:04:06.814Z,98023.59
2022-10-03T14:06:48.321Z,98076.56
2022-10-03T14:09:41.521Z,98035.47
2022-10-03T14:12:51.004Z,98044.69
2022-10-03T14:15:42.730Z,98039.47
2022-10-03T14:18:33.847Z,98060.88
2022-10-03T14:21:40.101Z,98063.38
2022-10-03T14:24:43.188Z,98090.66
2022-10-03T14:27:34.714Z,98085.38
2022-10-03T14:30:31.480Z,98075.84
2022-10-03T14:33:12.158Z,98072.41
2022-10-03T14:36:08.813Z,98096.38
2022-10-03T14:39:03.425Z,98104.03
2022-10-03T14:41:49.524Z,98097.22
2022-10-03T14:44:22.674Z,98099.06
2022-10-03T14:47:02.986Z,98092.31
2022-10-03T14:49:53.506Z,98100.81
2022-10-03T14:52:29.066Z,98089.81
2022-10-03T14:55:02.774Z,98109.44
2022-10-03T14:57:53.212Z,98107.81
2022-10-03T15:00:35.479Z,98100.09
2022-10-03T15:03:22.703Z,98101.81
2022-10-03T15:05:53.419Z,98105.16
2022-10-03T15:08:22.663Z,98119.69
2022-10-03T15:10:55.972Z,98122.28
2022-10-03T15:13:27.545Z,98122.28
2022-10-03T15:15:56.916Z,98121.41
2022-10-03T15:18:25.550Z,98123.19
2022-10-03T15:20:57.777Z,98102.66
2022-10-03T15:23:39.759Z,98120.69
2022-10-03T15:26:18.292Z,98121.59
2022-10-03T15:28:50.167Z,98113.00
2022-10-03T15:31:34.052Z,98124.06
2022-10-03T15:34:05.052Z,98143.72
2022-10-03T15:36:38.669Z,98139.53
2022-10-03T15:39:19.362Z,98137.75
2022-10-03T15:42:06.325Z,98135.25
2022-10-03T15:44:40.134Z,98136.88
2022-10-03T15:47:27.414Z,98149.81
2022-10-03T15:50:00.578Z,98164.19
2022-10-03T15:52:33.395Z,98163.44
2022-10-03T15:55:12.825Z,98165.13
2022-10-03T15:57:46.383Z,98171.22
2022-10-03T16:00:27.834Z,98165.22
2022-10-03T16:03:21.969Z,98164.34
2022-10-03T16:06:02.801Z,98159.13
2022-10-03T16:08:36.265Z,98169.31
2022-10-03T16:11:26.674Z,98166.75
2022-10-03T16:14:12.872Z,98170.94
2022-10-03T16:16:54.240Z,98166.53
2022-10-03T16:19:28.088Z,98180.03
2022-10-03T16:22:14.074Z,98171.44
2022-10-03T16:25:17.965Z,98179.03
2022-10-03T16:27:56.908Z,98165.31
2022-10-03T16:30:31.178Z,98192.66
2022-10-03T16:33:23.984Z,98179.03
2022-10-03T16:35:55.043Z,98193.59
2022-10-03T16:38:26.017Z,98204.72
2022-10-03T16:41:00.025Z,98192.81
2022-10-03T16:43:32.309Z,98201.31
2022-10-03T16:46:04.348Z,98206.41
2022-10-03T16:49:04.060Z,98195.34
2022-10-03T16:51:42.033Z,98217.59
2022-10-03T16:54:21.752Z,98211.59
2022-10-03T16:56:57.149Z,98197.88
2022-10-03T16:59:29.062Z,98210.81
2022-10-03T17:02:02.146Z,98204.78
2022-10-03T17:04:37.333Z,98214.31
2022-10-03T17:07:18.893Z,98221.28
2022-10-03T17:09:49.858Z,98243.47
2022-10-03T17:12:24.687Z,98245.13
2022-10-03T17:14:56.207Z,98243.50
2022-10-03T17:17:48.057Z,98246.19
2022-10-03T17:20:19.698Z,98244.38
2022-10-03T17:23:02.710Z,98259.09
2022-10-03T17:25:51.220Z,98246.94
2022-10-03T17:29:06.689Z,98255.59
2022-10-03T17:31:45.257Z,98250.47
2022-10-03T17:34:17.090Z,98255.56
2022-10-03T17:37:07.279Z,98267.59
2022-10-03T17:40:05.582Z,98265.06
2022-10-03T17:42:42.861Z,98265.84
2022-10-03T17:45:30.746Z,98267.63
2022-10-03T17:48:04.546Z,98259.75
2022-10-03T17:50:54.963Z,98263.09
2022-10-03T17:53:28.863Z,98246.69
2022-10-03T17:56:01.480Z,98251.69
2022-10-03T17:58:31.615Z,98267.84
2022-10-03T18:01:02.174Z,98277.28
2022-10-03T18:03:46.747Z,98268.00
2022-10-03T18:06:32.539Z,98280.91
2022-10-03T18:09:06.707Z,98270.44
2022-10-03T18:11:39.738Z,98278.25
2022-10-03T18:14:37.803Z,98279.22
2022-10-03T18:17:36.453Z,98277.53
2022-10-03T18:20:28.567Z,98289.63
2022-10-03T18:23:02.908Z,98298.22
2022-10-03T18:29:12.043Z,98313.66
2022-10-03T18:31:53.075Z,98319.66
2022-10-03T18:34:28.870Z,98319.63
2022-10-03T18:36:58.581Z,98337.63
2022-10-03T18:39:34.153Z,98340.22
2022-10-03T18:42:02.937Z,98328.06
2022-10-03T18:44:32.626Z,98359.75
2022-10-03T18:47:28.825Z,98353.88
2022-10-03T18:50:11.665Z,98377.78
2022-10-03T18:52:52.716Z,98370.13
2022-10-03T18:55:42.979Z,98365.06
2022-10-03T18:58:27.095Z,98369.31
2022-10-03T19:01:06.783Z,98374.56
2022-10-03T19:03:49.889Z,98381.53
2022-10-03T19:06:41.198Z,98381.47
2022-10-03T19:09:28.177Z,98379.63
2022-10-03T19:12:18.991Z,98383.22
2022-10-03T19:15:19.033Z,98382.47
2022-10-03T19:17:49.401Z,98386.72
2022-10-03T19:20:28.743Z,98374.75
2022-10-03T19:23:11.756Z,98370.50
2022-10-03T19:25:41.846Z,98385.13
2022-10-03T19:28:28.838Z,98385.28
2022-10-03T19:31:02.359Z,98385.25
2022-10-03T19:33:32.362Z,98383.53
2022-10-03T19:36:05.041Z,98386.09
2022-10-03T19:38:38.348Z,98390.47
2022-10-03T19:41:31.226Z,98389.63
2022-10-03T19:44:14.059Z,98391.34
2022-10-03T19:46:47.240Z,98393.97
2022-10-03T19:49:20.468Z,98404.22
2022-10-03T19:51:49.067Z,98413.81
2022-10-03T19:54:43.501Z,98410.44
2022-10-03T19:57:21.046Z,98398.34
2022-10-03T19:59:52.952Z,98405.41
2022-10-03T20:02:23.896Z,98403.56
2022-10-03T20:05:37.780Z,98403.75
2022-10-03T20:08:23.131Z,98408.13
2022-10-03T20:11:13.659Z,98416.69
2022-10-03T20:13:48.002Z,98413.38
2022-10-03T20:16:18.466Z,98422.81
2022-10-03T20:18:50.470Z,98420.25
2022-10-03T20:21:22.814Z,98421.16
2022-10-03T20:23:52.838Z,98423.78
2022-10-03T20:26:36.205Z,98415.19
2022-10-03T20:29:09.594Z,98430.72
2022-10-03T20:31:38.672Z,98455.66
2022-10-03T20:34:23.279Z,98429.94
2022-10-03T20:37:03.562Z,98435.97
2022-10-03T20:39:39.674Z,98435.13
2022-10-03T20:42:18.828Z,98448.91
2022-10-03T20:44:56.744Z,98437.84
2022-10-03T20:47:49.017Z,98441.25
2022-10-03T20:50:19.306Z,98440.31
2022-10-03T20:52:56.964Z,98429.00
2022-10-03T20:55:29.840Z,98446.16
2022-10-03T20:58:11.947Z,98441.88
2022-10-03T21:00:47.717Z,98446.13
2022-10-03T21:03:18.135Z,98449.44
2022-10-03T21:05:50.803Z,98448.63
2022-10-03T21:08:38.097Z,98437.47
